sensor_id;sensor_type;location;lat;lon;timestamp;P1;durP1;ratioP1;P2;durP2;ratioP2
55728;SDS011;41633;39.720;2.910;2022-10-29T00:00:38;15.95;;;4.00;;
55728;SDS011;41633;39.720;2.910;2022-10-29T00:03:04;16.15;;;4.68;;
55728;SDS011;41633;39.720;2.910;2022-10-29T00:05:31;14.35;;;4.32;;
55728;SDS011;41633;39.720;2.910;2022-10-29T00:07:57;13.25;;;4.55;;
55728;SDS011;41633;39.720;2.910;2022-10-29T00:10:24;14.18;;;4.43;;
55728;SDS011;41633;39.720;2.910;2022-10-29T00:12:51;16.98;;;3.90;;
55728;SDS011;41633;39.720;2.910;2022-10-29T00:15:17;16.48;;;4.35;;
55728;SDS011;41633;39.720;2.910;2022-10-29T00:17:43;15.95;;;4.10;;
55728;SDS011;41633;39.720;2.910;2022-10-29T00:20:10;15.77;;;3.97;;
55728;SDS011;41633;39.720;2.910;2022-10-29T00:22:36;20.13;;;4.20;;
55728;SDS011;41633;39.720;2.910;2022-10-29T00:27:28;13.27;;;3.70;;
55728;SDS011;41633;39.720;2.910;2022-10-29T00:29:55;14.77;;;3.85;;
55728;SDS011;41633;39.720;2.910;2022-10-29T00:32:21;13.70;;;3.90;;
55728;SDS011;41633;39.720;2.910;2022-10-29T00:34:48;15.68;;;4.03;;
55728;SDS011;41633;39.720;2.910;2022-10-29T00:37:14;15.00;;;3.97;;
55728;SDS011;41633;39.720;2.910;2022-10-29T00:42:12;17.08;;;4.00;;
55728;SDS011;41633;39.720;2.910;2022-10-29T00:44:38;15.63;;;4.10;;
55728;SDS011;41633;39.720;2.910;2022-10-29T00:49:48;12.55;;;3.42;;
55728;SDS011;41633;39.720;2.910;2022-10-29T00:52:15;14.52;;;4.03;;
55728;SDS011;41633;39.720;2.910;2022-10-29T00:54:43;12.88;;;3.80;;
55728;SDS011;41633;39.720;2.910;2022-10-29T00:57:15;12.68;;;4.00;;
55728;SDS011;41633;39.720;2.910;2022-10-29T00:59:43;14.00;;;4.20;;
55728;SDS011;41633;39.720;2.910;2022-10-29T01:02:10;12.80;;;3.20;;
55728;SDS011;41633;39.720;2.910;2022-10-29T01:07:02;13.35;;;4.00;;
55728;SDS011;41633;39.720;2.910;2022-10-29T01:09:29;15.50;;;3.40;;
55728;SDS011;41633;39.720;2.910;2022-10-29T01:14:35;11.00;;;3.20;;
55728;SDS011;41633;39.720;2.910;2022-10-29T01:32:24;13.75;;;3.28;;
55728;SDS011;41633;39.720;2.910;2022-10-29T01:35:04;12.27;;;3.35;;
55728;SDS011;41633;39.720;2.910;2022-10-29T01:40:27;11.95;;;3.20;;
55728;SDS011;41633;39.720;2.910;2022-10-29T01:43:08;12.75;;;3.70;;
55728;SDS011;41633;39.720;2.910;2022-10-29T01:45:35;18.15;;;4.28;;
55728;SDS011;41633;39.720;2.910;2022-10-29T01:48:10;15.77;;;4.13;;
55728;SDS011;41633;39.720;2.910;2022-10-29T01:50:37;14.23;;;3.75;;
55728;SDS011;41633;39.720;2.910;2022-10-29T01:53:04;16.23;;;3.97;;
55728;SDS011;41633;39.720;2.910;2022-10-29T01:55:31;13.02;;;3.60;;
55728;SDS011;41633;39.720;2.910;2022-10-29T01:58:03;10.60;;;2.83;;
55728;SDS011;41633;39.720;2.910;2022-10-29T02:00:33;11.30;;;3.05;;
55728;SDS011;41633;39.720;2.910;2022-10-29T02:08:13;14.10;;;3.67;;
55728;SDS011;41633;39.720;2.910;2022-10-29T02:10:55;10.57;;;3.40;;
55728;SDS011;41633;39.720;2.910;2022-10-29T02:13:26;12.75;;;3.25;;
55728;SDS011;41633;39.720;2.910;2022-10-29T02:15:54;9.98;;;2.60;;
55728;SDS011;41633;39.720;2.910;2022-10-29T02:18:21;10.25;;;3.10;;
55728;SDS011;41633;39.720;2.910;2022-10-29T02:23:14;8.38;;;2.80;;
55728;SDS011;41633;39.720;2.910;2022-10-29T02:25:41;12.32;;;3.28;;
55728;SDS011;41633;39.720;2.910;2022-10-29T02:28:07;10.80;;;3.03;;
55728;SDS011;41633;39.720;2.910;2022-10-29T02:33:00;10.32;;;2.92;;
55728;SDS011;41633;39.720;2.910;2022-10-29T02:35:26;10.77;;;2.83;;
55728;SDS011;41633;39.720;2.910;2022-10-29T02:40:18;10.05;;;2.83;;
55728;SDS011;41633;39.720;2.910;2022-10-29T02:42:45;8.43;;;2.67;;
55728;SDS011;41633;39.720;2.910;2022-10-29T02:45:11;14.48;;;3.70;;
55728;SDS011;41633;39.720;2.910;2022-10-29T02:47:38;11.85;;;3.05;;
55728;SDS011;41633;39.720;2.910;2022-10-29T02:50:04;8.60;;;2.50;;
55728;SDS011;41633;39.720;2.910;2022-10-29T02:52:31;12.35;;;2.97;;
55728;SDS011;41633;39.720;2.910;2022-10-29T02:54:57;11.20;;;3.20;;
55728;SDS011;41633;39.720;2.910;2022-10-29T02:57:23;10.75;;;2.70;;
55728;SDS011;41633;39.720;2.910;2022-10-29T03:02:16;12.88;;;3.10;;
55728;SDS011;41633;39.720;2.910;2022-10-29T03:07:08;11.27;;;2.80;;
55728;SDS011;41633;39.720;2.910;2022-10-29T03:09:35;12.32;;;2.90;;
55728;SDS011;41633;39.720;2.910;2022-10-29T03:12:01;15.00;;;3.83;;
55728;SDS011;41633;39.720;2.910;2022-10-29T03:14:27;11.05;;;3.08;;
55728;SDS011;41633;39.720;2.910;2022-10-29T03:16:53;11.73;;;3.08;;
55728;SDS011;41633;39.720;2.910;2022-10-29T03:21:45;14.85;;;3.05;;
55728;SDS011;41633;39.720;2.910;2022-10-29T03:26:38;15.50;;;3.17;;
55728;SDS011;41633;39.720;2.910;2022-10-29T03:29:04;11.60;;;3.08;;
55728;SDS011;41633;39.720;2.910;2022-10-29T03:31:30;15.30;;;3.72;;
55728;SDS011;41633;39.720;2.910;2022-10-29T03:33:56;10.23;;;3.00;;
55728;SDS011;41633;39.720;2.910;2022-10-29T03:36:22;15.88;;;3.40;;
55728;SDS011;41633;39.720;2.910;2022-10-29T03:41:15;14.35;;;3.42;;
55728;SDS011;41633;39.720;2.910;2022-10-29T03:43:41;12.13;;;2.85;;
55728;SDS011;41633;39.720;2.910;2022-10-29T03:48:33;14.20;;;3.00;;
55728;SDS011;41633;39.720;2.910;2022-10-29T03:53:26;13.77;;;3.53;;
55728;SDS011;41633;39.720;2.910;2022-10-29T03:55:52;16.20;;;3.45;;
55728;SDS011;41633;39.720;2.910;2022-10-29T03:58:19;15.75;;;2.92;;
55728;SDS011;41633;39.720;2.910;2022-10-29T04:00:56;17.58;;;3.13;;
55728;SDS011;41633;39.720;2.910;2022-10-29T04:03:22;12.88;;;3.10;;
55728;SDS011;41633;39.720;2.910;2022-10-29T04:05:49;12.93;;;3.08;;
55728;SDS011;41633;39.720;2.910;2022-10-29T04:08:15;12.38;;;3.08;;
55728;SDS011;41633;39.720;2.910;2022-10-29T04:10:45;10.82;;;2.75;;
55728;SDS011;41633;39.720;2.910;2022-10-29T04:13:12;9.85;;;2.65;;
55728;SDS011;41633;39.720;2.910;2022-10-29T04:15:38;13.82;;;3.17;;
55728;SDS011;41633;39.720;2.910;2022-10-29T04:20:30;15.57;;;2.90;;
55728;SDS011;41633;39.720;2.910;2022-10-29T04:22:56;11.93;;;2.80;;
55728;SDS011;41633;39.720;2.910;2022-10-29T04:27:49;11.43;;;3.20;;
55728;SDS011;41633;39.720;2.910;2022-10-29T04:30:15;14.65;;;3.55;;
55728;SDS011;41633;39.720;2.910;2022-10-29T04:32:41;11.68;;;3.10;;
55728;SDS011;41633;39.720;2.910;2022-10-29T04:37:34;15.88;;;3.45;;
55728;SDS011;41633;39.720;2.910;2022-10-29T04:40:00;10.50;;;3.28;;
55728;SDS011;41633;39.720;2.910;2022-10-29T04:42:27;13.38;;;3.40;;
55728;SDS011;41633;39.720;2.910;2022-10-29T04:44:53;15.10;;;3.50;;
55728;SDS011;41633;39.720;2.910;2022-10-29T04:47:20;13.00;;;2.92;;
55728;SDS011;41633;39.720;2.910;2022-10-29T04:49:47;12.38;;;3.28;;
55728;SDS011;41633;39.720;2.910;2022-10-29T04:52:13;11.25;;;2.83;;
55728;SDS011;41633;39.720;2.910;2022-10-29T04:57:05;10.60;;;2.90;;
55728;SDS011;41633;39.720;2.910;2022-10-29T04:59:31;16.95;;;3.08;;
55728;SDS011;41633;39.720;2.910;2022-10-29T05:01:57;11.15;;;3.00;;
55728;SDS011;41633;39.720;2.910;2022-10-29T05:04:24;14.85;;;3.20;;
55728;SDS011;41633;39.720;2.910;2022-10-29T05:06:53;11.57;;;2.92;;
55728;SDS011;41633;39.720;2.910;2022-10-29T05:09:20;13.93;;;3.20;;
55728;SDS011;41633;39.720;2.910;2022-10-29T05:11:46;12.68;;;3.35;;
55728;SDS011;41633;39.720;2.910;2022-10-29T05:14:12;17.40;;;3.78;;
55728;SDS011;41633;39.720;2.910;2022-10-29T05:16:39;14.48;;;3.60;;
55728;SDS011;41633;39.720;2.910;2022-10-29T05:19:05;15.40;;;3.67;;
55728;SDS011;41633;39.720;2.910;2022-10-29T05:21:31;15.50;;;3.60;;
55728;SDS011;41633;39.720;2.910;2022-10-29T05:26:24;12.77;;;3.40;;
55728;SDS011;41633;39.720;2.910;2022-10-29T05:28:50;15.98;;;3.65;;
55728;SDS011;41633;39.720;2.910;2022-10-29T05:31:17;14.18;;;3.20;;
55728;SDS011;41633;39.720;2.910;2022-10-29T05:33:43;11.00;;;3.10;;
55728;SDS011;41633;39.720;2.910;2022-10-29T05:38:36;22.20;;;3.55;;
55728;SDS011;41633;39.720;2.910;2022-10-29T05:41:02;15.15;;;3.50;;
55728;SDS011;41633;39.720;2.910;2022-10-29T05:45:54;19.08;;;3.50;;
55728;SDS011;41633;39.720;2.910;2022-10-29T05:48:21;12.88;;;3.47;;
55728;SDS011;41633;39.720;2.910;2022-10-29T05:50:47;15.35;;;3.90;;
55728;SDS011;41633;39.720;2.910;2022-10-29T05:53:13;14.75;;;4.38;;
55728;SDS011;41633;39.720;2.910;2022-10-29T05:55:40;15.10;;;4.35;;
55728;SDS011;41633;39.720;2.910;2022-10-29T05:58:09;15.85;;;4.10;;
55728;SDS011;41633;39.720;2.910;2022-10-29T06:00:36;12.70;;;4.15;;
55728;SDS011;41633;39.720;2.910;2022-10-29T06:03:07;15.80;;;4.05;;
55728;SDS011;41633;39.720;2.910;2022-10-29T06:05:34;17.83;;;3.85;;
55728;SDS011;41633;39.720;2.910;2022-10-29T06:08:00;16.45;;;3.85;;
55728;SDS011;41633;39.720;2.910;2022-10-29T06:12:52;16.80;;;4.50;;
55728;SDS011;41633;39.720;2.910;2022-10-29T06:17:45;15.05;;;3.90;;
55728;SDS011;41633;39.720;2.910;2022-10-29T06:20:12;18.35;;;3.90;;
55728;SDS011;41633;39.720;2.910;2022-10-29T06:22:39;21.77;;;3.92;;
55728;SDS011;41633;39.720;2.910;2022-10-29T06:25:05;15.55;;;4.22;;
55728;SDS011;41633;39.720;2.910;2022-10-29T06:27:31;15.85;;;4.20;;
55728;SDS011;41633;39.720;2.910;2022-10-29T06:29:58;16.35;;;3.90;;
55728;SDS011;41633;39.720;2.910;2022-10-29T06:32:24;17.05;;;3.72;;
55728;SDS011;41633;39.720;2.910;2022-10-29T06:34:50;12.35;;;3.45;;
55728;SDS011;41633;39.720;2.910;2022-10-29T06:37:16;13.05;;;3.33;;
55728;SDS011;41633;39.720;2.910;2022-10-29T06:39:43;14.68;;;3.40;;
55728;SDS011;41633;39.720;2.910;2022-10-29T06:42:09;16.42;;;3.22;;
55728;SDS011;41633;39.720;2.910;2022-10-29T06:44:36;15.30;;;3.15;;
55728;SDS011;41633;39.720;2.910;2022-10-29T06:47:02;15.38;;;3.60;;
55728;SDS011;41633;39.720;2.910;2022-10-29T06:49:29;9.43;;;3.42;;
55728;SDS011;41633;39.720;2.910;2022-10-29T06:51:55;12.57;;;3.90;;
55728;SDS011;41633;39.720;2.910;2022-10-29T06:56:47;11.88;;;3.58;;
55728;SDS011;41633;39.720;2.910;2022-10-29T06:59:13;17.27;;;3.47;;
55728;SDS011;41633;39.720;2.910;2022-10-29T07:01:39;13.98;;;4.10;;
55728;SDS011;41633;39.720;2.910;2022-10-29T07:04:06;13.40;;;3.75;;
55728;SDS011;41633;39.720;2.910;2022-10-29T07:06:32;15.15;;;3.80;;
55728;SDS011;41633;39.720;2.910;2022-10-29T07:08:58;12.00;;;3.40;;
55728;SDS011;41633;39.720;2.910;2022-10-29T07:11:25;17.88;;;3.35;;
55728;SDS011;41633;39.720;2.910;2022-10-29T07:16:17;14.40;;;3.88;;
55728;SDS011;41633;39.720;2.910;2022-10-29T07:21:09;17.98;;;3.90;;
55728;SDS011;41633;39.720;2.910;2022-10-29T07:23:37;13.98;;;3.95;;
55728;SDS011;41633;39.720;2.910;2022-10-29T07:26:04;17.42;;;4.82;;
55728;SDS011;41633;39.720;2.910;2022-10-29T07:28:30;19.90;;;5.00;;
55728;SDS011;41633;39.720;2.910;2022-10-29T07:33:23;16.30;;;5.05;;
55728;SDS011;41633;39.720;2.910;2022-10-29T07:35:49;17.20;;;5.30;;
55728;SDS011;41633;39.720;2.910;2022-10-29T07:38:16;19.35;;;5.93;;
55728;SDS011;41633;39.720;2.910;2022-10-29T07:40:46;16.42;;;5.20;;
55728;SDS011;41633;39.720;2.910;2022-10-29T07:43:12;17.35;;;5.20;;
55728;SDS011;41633;39.720;2.910;2022-10-29T07:48:05;13.55;;;4.90;;
55728;SDS011;41633;39.720;2.910;2022-10-29T07:50:32;17.17;;;4.43;;
55728;SDS011;41633;39.720;2.910;2022-10-29T07:52:58;18.75;;;4.45;;
55728;SDS011;41633;39.720;2.910;2022-10-29T07:55:25;15.00;;;4.55;;
55728;SDS011;41633;39.720;2.910;2022-10-29T07:57:57;17.98;;;4.85;;
55728;SDS011;41633;39.720;2.910;2022-10-29T08:00:25;12.55;;;4.07;;
55728;SDS011;41633;39.720;2.910;2022-10-29T08:02:52;16.58;;;4.50;;
55728;SDS011;41633;39.720;2.910;2022-10-29T08:05:18;15.18;;;4.53;;
55728;SDS011;41633;39.720;2.910;2022-10-29T08:10:11;14.23;;;4.72;;
55728;SDS011;41633;39.720;2.910;2022-10-29T08:15:03;16.10;;;4.13;;
55728;SDS011;41633;39.720;2.910;2022-10-29T08:17:30;17.77;;;4.78;;
55728;SDS011;41633;39.720;2.910;2022-10-29T08:19:56;16.08;;;4.90;;
55728;SDS011;41633;39.720;2.910;2022-10-29T08:22:22;18.23;;;4.60;;
55728;SDS011;41633;39.720;2.910;2022-10-29T08:24:49;18.60;;;5.15;;
55728;SDS011;41633;39.720;2.910;2022-10-29T08:29:41;16.92;;;5.60;;
55728;SDS011;41633;39.720;2.910;2022-10-29T08:32:07;16.67;;;5.70;;
55728;SDS011;41633;39.720;2.910;2022-10-29T08:34:33;17.58;;;5.25;;
55728;SDS011;41633;39.720;2.910;2022-10-29T08:36:59;17.55;;;5.72;;
55728;SDS011;41633;39.720;2.910;2022-10-29T08:39:27;21.08;;;7.32;;
55728;SDS011;41633;39.720;2.910;2022-10-29T08:47:07;21.13;;;7.13;;
55728;SDS011;41633;39.720;2.910;2022-10-29T08:49:37;21.70;;;6.50;;
55728;SDS011;41633;39.720;2.910;2022-10-29T08:52:08;17.70;;;5.18;;
55728;SDS011;41633;39.720;2.910;2022-10-29T08:54:37;15.02;;;4.80;;
55728;SDS011;41633;39.720;2.910;2022-10-29T08:57:06;15.10;;;4.30;;
55728;SDS011;41633;39.720;2.910;2022-10-29T08:59:35;18.52;;;4.82;;
55728;SDS011;41633;39.720;2.910;2022-10-29T09:02:02;15.63;;;4.70;;
55728;SDS011;41633;39.720;2.910;2022-10-29T09:04:31;14.63;;;4.28;;
55728;SDS011;41633;39.720;2.910;2022-10-29T09:09:43;16.38;;;4.82;;
55728;SDS011;41633;39.720;2.910;2022-10-29T09:27:23;15.73;;;4.50;;
55728;SDS011;41633;39.720;2.910;2022-10-29T09:29:57;18.95;;;5.18;;
55728;SDS011;41633;39.720;2.910;2022-10-29T09:32:39;23.67;;;10.65;;
55728;SDS011;41633;39.720;2.910;2022-10-29T09:35:14;16.15;;;6.53;;
55728;SDS011;41633;39.720;2.910;2022-10-29T09:37:48;15.80;;;5.07;;
55728;SDS011;41633;39.720;2.910;2022-10-29T09:42:43;16.70;;;4.28;;
55728;SDS011;41633;39.720;2.910;2022-10-29T09:45:15;14.07;;;3.95;;
55728;SDS011;41633;39.720;2.910;2022-10-29T09:52:35;17.73;;;4.32;;
55728;SDS011;41633;39.720;2.910;2022-10-29T09:55:02;15.57;;;4.22;;
55728;SDS011;41633;39.720;2.910;2022-10-29T09:57:30;18.27;;;4.05;;
55728;SDS011;41633;39.720;2.910;2022-10-29T10:00:05;14.73;;;3.70;;
55728;SDS011;41633;39.720;2.910;2022-10-29T10:02:42;14.65;;;3.63;;
55728;SDS011;41633;39.720;2.910;2022-10-29T10:07:37;15.10;;;3.53;;
55728;SDS011;41633;39.720;2.910;2022-10-29T10:10:04;12.60;;;3.33;;
55728;SDS011;41633;39.720;2.910;2022-10-29T10:17:37;14.23;;;3.67;;
55728;SDS011;41633;39.720;2.910;2022-10-29T10:22:57;20.63;;;4.22;;
55728;SDS011;41633;39.720;2.910;2022-10-29T10:25:31;16.88;;;4.72;;
55728;SDS011;41633;39.720;2.910;2022-10-29T10:27:57;18.08;;;4.50;;
55728;SDS011;41633;39.720;2.910;2022-10-29T10:30:23;16.35;;;4.03;;
55728;SDS011;41633;39.720;2.910;2022-10-29T10:32:50;13.82;;;4.10;;
55728;SDS011;41633;39.720;2.910;2022-10-29T10:35:29;17.20;;;3.60;;
55728;SDS011;41633;39.720;2.910;2022-10-29T10:37:56;15.93;;;3.78;;
55728;SDS011;41633;39.720;2.910;2022-10-29T10:40:23;18.92;;;4.90;;
55728;SDS011;41633;39.720;2.910;2022-10-29T10:42:52;15.73;;;4.47;;
55728;SDS011;41633;39.720;2.910;2022-10-29T10:45:23;18.13;;;4.80;;
55728;SDS011;41633;39.720;2.910;2022-10-29T10:47:50;16.88;;;4.80;;
55728;SDS011;41633;39.720;2.910;2022-10-29T10:50:21;15.48;;;3.72;;
55728;SDS011;41633;39.720;2.910;2022-10-29T10:52:48;17.45;;;4.68;;
55728;SDS011;41633;39.720;2.910;2022-10-29T10:55:15;17.40;;;4.70;;
55728;SDS011;41633;39.720;2.910;2022-10-29T10:57:55;15.70;;;4.10;;
55728;SDS011;41633;39.720;2.910;2022-10-29T11:00:23;14.43;;;4.18;;
55728;SDS011;41633;39.720;2.910;2022-10-29T11:05:30;13.48;;;3.78;;
55728;SDS011;41633;39.720;2.910;2022-10-29T11:10:27;16.15;;;3.80;;
55728;SDS011;41633;39.720;2.910;2022-10-29T11:12:56;13.90;;;3.40;;
55728;SDS011;41633;39.720;2.910;2022-10-29T11:16:11;17.17;;;3.83;;
55728;SDS011;41633;39.720;2.910;2022-10-29T11:18:13;13.88;;;3.60;;
55728;SDS011;41633;39.720;2.910;2022-10-29T11:20:43;13.43;;;3.63;;
55728;SDS011;41633;39.720;2.910;2022-10-29T11:25:49;25.58;;;4.85;;
55728;SDS011;41633;39.720;2.910;2022-10-29T11:30:43;17.20;;;3.50;;
55728;SDS011;41633;39.720;2.910;2022-10-29T11:33:20;14.38;;;3.42;;
55728;SDS011;41633;39.720;2.910;2022-10-29T11:35:56;12.60;;;2.88;;
55728;SDS011;41633;39.720;2.910;2022-10-29T11:38:26;12.35;;;2.80;;
55728;SDS011;41633;39.720;2.910;2022-10-29T11:41:03;14.00;;;3.20;;
55728;SDS011;41633;39.720;2.910;2022-10-29T11:43:31;13.48;;;3.70;;
55728;SDS011;41633;39.720;2.910;2022-10-29T11:48:39;44.65;;;21.63;;
55728;SDS011;41633;39.720;2.910;2022-10-29T11:51:27;40.85;;;17.40;;
55728;SDS011;41633;39.720;2.910;2022-10-29T11:54:00;28.65;;;11.45;;
55728;SDS011;41633;39.720;2.910;2022-10-29T11:58:58;30.70;;;9.60;;
55728;SDS011;41633;39.720;2.910;2022-10-29T12:04:22;16.33;;;4.18;;
55728;SDS011;41633;39.720;2.910;2022-10-29T12:14:40;17.33;;;4.25;;
55728;SDS011;41633;39.720;2.910;2022-10-29T12:19:36;13.63;;;3.70;;
55728;SDS011;41633;39.720;2.910;2022-10-29T12:27:53;14.45;;;3.75;;
55728;SDS011;41633;39.720;2.910;2022-10-29T12:30:23;13.65;;;3.85;;
55728;SDS011;41633;39.720;2.910;2022-10-29T12:40:37;15.23;;;3.90;;
55728;SDS011;41633;39.720;2.910;2022-10-29T12:43:09;12.90;;;4.35;;
55728;SDS011;41633;39.720;2.910;2022-10-29T12:45:40;13.60;;;4.00;;
55728;SDS011;41633;39.720;2.910;2022-10-29T12:50:48;15.80;;;3.83;;
55728;SDS011;41633;39.720;2.910;2022-10-29T12:53:18;15.73;;;3.58;;
55728;SDS011;41633;39.720;2.910;2022-10-29T12:55:48;15.82;;;3.53;;
55728;SDS011;41633;39.720;2.910;2022-10-29T13:01:00;13.90;;;3.72;;
55728;SDS011;41633;39.720;2.910;2022-10-29T13:08:37;14.90;;;3.58;;
55728;SDS011;41633;39.720;2.910;2022-10-29T13:11:03;18.40;;;3.65;;
55728;SDS011;41633;39.720;2.910;2022-10-29T13:13:46;14.82;;;3.40;;
55728;SDS011;41633;39.720;2.910;2022-10-29T13:16:18;17.33;;;3.40;;
55728;SDS011;41633;39.720;2.910;2022-10-29T13:18:55;15.68;;;4.10;;
55728;SDS011;41633;39.720;2.910;2022-10-29T13:24:14;14.30;;;4.15;;
55728;SDS011;41633;39.720;2.910;2022-10-29T13:27:00;13.07;;;3.03;;
55728;SDS011;41633;39.720;2.910;2022-10-29T13:32:05;21.65;;;3.90;;
55728;SDS011;41633;39.720;2.910;2022-10-29T13:34:51;16.17;;;3.88;;
55728;SDS011;41633;39.720;2.910;2022-10-29T13:42:44;16.88;;;4.10;;
55728;SDS011;41633;39.720;2.910;2022-10-29T13:45:11;14.02;;;3.70;;
55728;SDS011;41633;39.720;2.910;2022-10-29T13:47:39;14.38;;;3.33;;
55728;SDS011;41633;39.720;2.910;2022-10-29T13:50:05;17.52;;;3.40;;
55728;SDS011;41633;39.720;2.910;2022-10-29T13:52:32;17.92;;;4.32;;
55728;SDS011;41633;39.720;2.910;2022-10-29T13:55:04;16.48;;;4.00;;
55728;SDS011;41633;39.720;2.910;2022-10-29T13:57:48;13.70;;;4.00;;
55728;SDS011;41633;39.720;2.910;2022-10-29T14:00:17;17.80;;;4.00;;
55728;SDS011;41633;39.720;2.910;2022-10-29T14:05:18;12.23;;;3.67;;
55728;SDS011;41633;39.720;2.910;2022-10-29T14:10:23;14.90;;;4.40;;
55728;SDS011;41633;39.720;2.910;2022-10-29T14:12:50;17.95;;;4.43;;
55728;SDS011;41633;39.720;2.910;2022-10-29T14:15:19;14.15;;;4.07;;
55728;SDS011;41633;39.720;2.910;2022-10-29T14:17:45;14.70;;;3.72;;
55728;SDS011;41633;39.720;2.910;2022-10-29T14:20:24;15.20;;;4.10;;
55728;SDS011;41633;39.720;2.910;2022-10-29T14:22:51;13.48;;;3.63;;
55728;SDS011;41633;39.720;2.910;2022-10-29T14:25:25;13.57;;;4.13;;
55728;SDS011;41633;39.720;2.910;2022-10-29T14:30:37;15.23;;;4.07;;
55728;SDS011;41633;39.720;2.910;2022-10-29T14:33:16;17.38;;;5.22;;
55728;SDS011;41633;39.720;2.910;2022-10-29T14:35:42;17.55;;;5.00;;
55728;SDS011;41633;39.720;2.910;2022-10-29T14:38:10;18.00;;;4.80;;
55728;SDS011;41633;39.720;2.910;2022-10-29T14:40:36;16.92;;;4.40;;
55728;SDS011;41633;39.720;2.910;2022-10-29T14:43:03;17.13;;;4.40;;
55728;SDS011;41633;39.720;2.910;2022-10-29T14:45:29;16.88;;;4.35;;
55728;SDS011;41633;39.720;2.910;2022-10-29T14:47:57;16.92;;;4.20;;
55728;SDS011;41633;39.720;2.910;2022-10-29T14:50:25;18.20;;;4.10;;
55728;SDS011;41633;39.720;2.910;2022-10-29T14:53:00;15.18;;;4.00;;
55728;SDS011;41633;39.720;2.910;2022-10-29T14:55:29;17.42;;;4.00;;
55728;SDS011;41633;39.720;2.910;2022-10-29T14:58:15;18.67;;;4.13;;
55728;SDS011;41633;39.720;2.910;2022-10-29T15:00:49;15.90;;;4.43;;
55728;SDS011;41633;39.720;2.910;2022-10-29T15:03:19;16.92;;;4.53;;
55728;SDS011;41633;39.720;2.910;2022-10-29T15:05:46;16.25;;;4.10;;
55728;SDS011;41633;39.720;2.910;2022-10-29T15:08:13;14.27;;;4.45;;
55728;SDS011;41633;39.720;2.910;2022-10-29T15:10:55;15.82;;;4.57;;
55728;SDS011;41633;39.720;2.910;2022-10-29T15:16:04;14.13;;;4.20;;
55728;SDS011;41633;39.720;2.910;2022-10-29T15:18:32;13.57;;;4.07;;
55728;SDS011;41633;39.720;2.910;2022-10-29T15:20:58;15.77;;;4.07;;
55728;SDS011;41633;39.720;2.910;2022-10-29T15:23:26;17.98;;;4.78;;
55728;SDS011;41633;39.720;2.910;2022-10-29T15:25:54;16.10;;;4.38;;
55728;SDS011;41633;39.720;2.910;2022-10-29T15:28:24;15.90;;;4.38;;
55728;SDS011;41633;39.720;2.910;2022-10-29T15:30:50;17.13;;;4.63;;
55728;SDS011;41633;39.720;2.910;2022-10-29T15:33:19;17.13;;;4.15;;
55728;SDS011;41633;39.720;2.910;2022-10-29T15:35:51;15.40;;;3.70;;
55728;SDS011;41633;39.720;2.910;2022-10-29T16:02:32;19.63;;;4.63;;
55728;SDS011;41633;39.720;2.910;2022-10-29T16:04:59;19.90;;;4.72;;
55728;SDS011;41633;39.720;2.910;2022-10-29T16:07:25;21.55;;;4.53;;
55728;SDS011;41633;39.720;2.910;2022-10-29T16:09:52;18.52;;;4.38;;
55728;SDS011;41633;39.720;2.910;2022-10-29T16:12:19;20.30;;;4.95;;
55728;SDS011;41633;39.720;2.910;2022-10-29T16:14:45;17.83;;;4.78;;
55728;SDS011;41633;39.720;2.910;2022-10-29T16:17:18;14.52;;;4.53;;
55728;SDS011;41633;39.720;2.910;2022-10-29T16:19:45;23.42;;;4.97;;
55728;SDS011;41633;39.720;2.910;2022-10-29T16:22:13;18.25;;;4.53;;
55728;SDS011;41633;39.720;2.910;2022-10-29T16:24:41;17.23;;;4.88;;
55728;SDS011;41633;39.720;2.910;2022-10-29T16:27:14;17.15;;;5.00;;
55728;SDS011;41633;39.720;2.910;2022-10-29T16:29:41;19.85;;;5.75;;
55728;SDS011;41633;39.720;2.910;2022-10-29T16:32:08;17.42;;;5.45;;
55728;SDS011;41633;39.720;2.910;2022-10-29T16:34:37;23.13;;;6.28;;
55728;SDS011;41633;39.720;2.910;2022-10-29T16:37:03;23.02;;;6.20;;
55728;SDS011;41633;39.720;2.910;2022-10-29T16:39:30;23.92;;;6.00;;
55728;SDS011;41633;39.720;2.910;2022-10-29T16:41:56;24.92;;;6.38;;
55728;SDS011;41633;39.720;2.910;2022-10-29T16:44:22;21.02;;;6.03;;
55728;SDS011;41633;39.720;2.910;2022-10-29T16:46:52;20.88;;;6.30;;
55728;SDS011;41633;39.720;2.910;2022-10-29T16:49:18;21.38;;;5.90;;
55728;SDS011;41633;39.720;2.910;2022-10-29T16:51:45;22.58;;;6.10;;
55728;SDS011;41633;39.720;2.910;2022-10-29T16:54:11;22.20;;;7.47;;
55728;SDS011;41633;39.720;2.910;2022-10-29T16:56:37;28.80;;;7.93;;
55728;SDS011;41633;39.720;2.910;2022-10-29T16:59:03;22.33;;;7.30;;
55728;SDS011;41633;39.720;2.910;2022-10-29T17:01:30;26.80;;;7.53;;
55728;SDS011;41633;39.720;2.910;2022-10-29T17:03:56;27.25;;;9.98;;
55728;SDS011;41633;39.720;2.910;2022-10-29T17:06:23;28.35;;;10.20;;
55728;SDS011;41633;39.720;2.910;2022-10-29T17:08:52;22.88;;;10.65;;
55728;SDS011;41633;39.720;2.910;2022-10-29T17:11:18;30.23;;;11.70;;
55728;SDS011;41633;39.720;2.910;2022-10-29T17:13:44;29.02;;;10.75;;
55728;SDS011;41633;39.720;2.910;2022-10-29T17:16:14;26.05;;;10.07;;
55728;SDS011;41633;39.720;2.910;2022-10-29T17:18:42;25.15;;;9.73;;
55728;SDS011;41633;39.720;2.910;2022-10-29T17:21:14;28.30;;;9.30;;
55728;SDS011;41633;39.720;2.910;2022-10-29T17:23:41;22.60;;;8.43;;
55728;SDS011;41633;39.720;2.910;2022-10-29T17:26:07;21.20;;;7.78;;
55728;SDS011;41633;39.720;2.910;2022-10-29T17:28:34;24.08;;;8.23;;
55728;SDS011;41633;39.720;2.910;2022-10-29T17:31:08;23.80;;;7.68;;
55728;SDS011;41633;39.720;2.910;2022-10-29T17:33:38;21.00;;;8.10;;
55728;SDS011;41633;39.720;2.910;2022-10-29T17:36:05;28.20;;;8.45;;
55728;SDS011;41633;39.720;2.910;2022-10-29T17:38:36;25.45;;;7.32;;
55728;SDS011;41633;39.720;2.910;2022-10-29T17:41:04;24.15;;;7.80;;
55728;SDS011;41633;39.720;2.910;2022-10-29T17:43:32;23.00;;;8.18;;
55728;SDS011;41633;39.720;2.910;2022-10-29T17:45:59;22.90;;;8.20;;
55728;SDS011;41633;39.720;2.910;2022-10-29T17:48:25;25.23;;;9.30;;
55728;SDS011;41633;39.720;2.910;2022-10-29T17:50:55;29.52;;;8.93;;
55728;SDS011;41633;39.720;2.910;2022-10-29T17:53:36;24.30;;;9.10;;
55728;SDS011;41633;39.720;2.910;2022-10-29T17:56:04;20.38;;;7.45;;
55728;SDS011;41633;39.720;2.910;2022-10-29T17:58:55;26.10;;;8.93;;
55728;SDS011;41633;39.720;2.910;2022-10-29T18:01:24;30.73;;;9.80;;
55728;SDS011;41633;39.720;2.910;2022-10-29T18:03:51;25.98;;;8.70;;
55728;SDS011;41633;39.720;2.910;2022-10-29T18:06:19;25.42;;;8.90;;
55728;SDS011;41633;39.720;2.910;2022-10-29T18:08:47;21.52;;;9.23;;
55728;SDS011;41633;39.720;2.910;2022-10-29T18:11:16;26.13;;;9.85;;
55728;SDS011;41633;39.720;2.910;2022-10-29T18:13:47;29.55;;;10.00;;
55728;SDS011;41633;39.720;2.910;2022-10-29T18:16:19;24.35;;;10.00;;
55728;SDS011;41633;39.720;2.910;2022-10-29T18:18:48;21.33;;;8.55;;
55728;SDS011;41633;39.720;2.910;2022-10-29T18:21:19;27.05;;;9.18;;
55728;SDS011;41633;39.720;2.910;2022-10-29T18:24:04;25.42;;;7.85;;
55728;SDS011;41633;39.720;2.910;2022-10-29T18:26:34;23.63;;;7.70;;
55728;SDS011;41633;39.720;2.910;2022-10-29T18:29:03;26.83;;;7.82;;
55728;SDS011;41633;39.720;2.910;2022-10-29T18:31:32;27.88;;;7.63;;
55728;SDS011;41633;39.720;2.910;2022-10-29T18:34:00;21.65;;;7.57;;
55728;SDS011;41633;39.720;2.910;2022-10-29T18:36:30;20.92;;;7.72;;
55728;SDS011;41633;39.720;2.910;2022-10-29T18:38:56;26.15;;;7.95;;
55728;SDS011;41633;39.720;2.910;2022-10-29T18:41:24;27.30;;;9.10;;